Time;durP1;ratioP1;P1;durP2;ratioP2;P2;SDS_P1;SDS_P2;PMS_P1;PMS_P2;Temp;Humidity;BMP_temperature;BMP_pressure;BME280_temperature;BME280_humidity;BME280_pressure;Samples;Min_cycle;Max_cycle;Signal;HPM_P1;HPM_P2
2022/08/30 00:01:01;;;;;;;4.20;3.85;;;;;;;15.47;87.66;102229.97;5013092;28;20050;-73
2022/08/30 00:01:58;;;;;;;5.10;4.35;;;;;;;15.45;87.46;102231.56;5012325;28;20534;-73
2022/08/30 00:04:25;;;;;;;4.22;3.80;;;;;;;15.40;88.05;102232.88;5012492;28;20141;-73
2022/08/30 00:06:51;;;;;;;4.60;4.15;;;;;;;15.38;88.12;102232.56;5006934;28;20077;-73
2022/08/30 00:09:18;;;;;;;4.35;4.05;;;;;;;15.35;88.17;102236.13;5012931;28;20101;-73
2022/08/30 00:11:44;;;;;;;4.70;4.30;;;;;;;15.32;88.45;102237.75;5012713;28;20046;-74
2022/08/30 00:14:11;;;;;;;5.65;4.30;;;;;;;15.31;88.64;102238.19;5012866;28;20046;-74
2022/08/30 00:16:37;;;;;;;4.32;3.97;;;;;;;15.29;88.41;102235.19;5011996;28;20038;-74
2022/08/30 00:19:04;;;;;;;5.68;4.15;;;;;;;15.26;88.14;102233.38;5012402;28;20597;-74
2022/08/30 00:21:31;;;;;;;5.50;4.28;;;;;;;15.26;88.47;102233.38;5011337;28;20089;-74
2022/08/30 00:23:58;;;;;;;4.25;3.88;;;;;;;15.20;88.74;102233.16;5012069;28;20142;-73
2022/08/30 00:26:24;;;;;;;7.07;4.50;;;;;;;15.19;88.85;102229.00;5012315;28;20117;-74
2022/08/30 00:28:51;;;;;;;4.65;4.25;;;;;;;15.18;88.93;102230.19;5012523;28;20054;-73
2022/08/30 00:31:18;;;;;;;5.07;4.15;;;;;;;15.17;88.79;102230.63;5012364;28;20038;-73
2022/08/30 00:33:44;;;;;;;5.25;3.95;;;;;;;15.15;88.85;102231.06;5012171;28;20198;-73
2022/08/30 00:36:11;;;;;;;6.45;4.32;;;;;;;15.10;88.86;102231.63;5012607;28;20042;-73
2022/08/30 00:38:37;;;;;;;8.07;4.32;;;;;;;15.07;89.22;102224.44;5012424;28;20046;-73
2022/08/30 00:41:04;;;;;;;11.68;4.53;;;;;;;15.04;89.06;102214.59;5011944;28;20050;-73
2022/08/30 00:43:32;;;;;;;6.07;4.55;;;;;;;15.03;88.94;102215.75;5012160;28;20115;-73
2022/08/30 00:46:03;;;;;;;6.90;4.38;;;;;;;15.00;89.31;102219.31;5012461;28;20474;-73
2022/08/30 00:48:32;;;;;;;4.97;4.65;;;;;;;14.96;89.38;102222.09;5012291;28;20046;-73
2022/08/30 00:51:02;;;;;;;4.80;4.32;;;;;;;14.95;89.67;102223.28;5011985;28;20051;-73
2022/08/30 00:53:35;;;;;;;6.18;4.72;;;;;;;14.93;89.46;102230.25;5012381;28;20054;-74
2022/08/30 00:56:03;;;;;;;6.68;4.45;;;;;;;14.90;89.57;102237.25;5006001;28;20102;-73
2022/08/30 00:58:36;;;;;;;6.07;4.68;;;;;;;14.89;89.36;102224.28;4990230;28;20074;-74
2022/08/30 01:01:06;;;;;;;5.10;4.60;;;;;;;14.84;90.15;102238.97;4992210;28;20047;-73
2022/08/30 01:03:35;;;;;;;6.70;4.80;;;;;;;14.83;90.18;102239.41;4992172;28;20049;-74
2022/08/30 01:06:03;;;;;;;6.68;4.32;;;;;;;14.81;90.22;102236.41;4991716;28;20051;-74
2022/08/30 01:08:30;;;;;;;5.15;4.70;;;;;;;14.79;90.32;102238.78;4991670;28;20414;-73
2022/08/30 01:10:58;;;;;;;5.45;4.95;;;;;;;14.79;90.23;102236.13;5007395;28;20527;-73
2022/08/30 01:13:27;;;;;;;5.35;4.93;;;;;;;14.76;90.67;102228.94;4991955;28;20054;-74
2022/08/30 01:15:54;;;;;;;5.32;4.90;;;;;;;14.74;90.75;102229.34;4992185;28;20456;-73
2022/08/30 01:18:22;;;;;;;6.97;5.20;;;;;;;14.74;90.80;102229.34;4992424;28;20043;-73
2022/08/30 01:21:00;;;;;;;5.55;4.95;;;;;;;14.73;90.60;102238.59;4992052;28;20054;-73
2022/08/30 01:23:27;;;;;;;5.75;5.18;;;;;;;14.72;90.87;102237.09;4992029;28;20043;-73
2022/08/30 01:25:55;;;;;;;8.50;5.40;;;;;;;14.70;91.41;102239.44;4992032;28;20109;-73
2022/08/30 01:28:24;;;;;;;9.95;5.43;;;;;;;14.71;91.24;102240.19;4991815;28;20452;-73
2022/08/30 01:30:51;;;;;;;6.05;5.38;;;;;;;14.71;91.46;102235.59;4992044;28;20117;-73
2022/08/30 01:33:20;;;;;;;6.45;5.75;;;;;;;14.70;91.77;102236.75;4992307;28;20112;-73
2022/08/30 01:35:57;;;;;;;5.55;5.05;;;;;;;14.68;91.60;102239.13;4992388;28;20047;-73
2022/08/30 01:38:55;;;;;;;6.32;5.70;;;;;;;14.66;91.70;102241.47;4991940;28;20101;-73
2022/08/30 01:41:24;;;;;;;5.35;4.95;;;;;;;14.66;91.61;102241.47;4991203;28;20059;-73
2022/08/30 01:43:53;;;;;;;6.55;5.72;;;;;;;14.63;91.88;102239.66;4991465;28;20463;-73
2022/08/30 01:46:23;;;;;;;5.82;5.20;;;;;;;14.63;91.69;102245.03;4992116;28;20106;-73
2022/08/30 01:48:52;;;;;;;5.70;5.20;;;;;;;14.61;91.43;102250.06;4991620;28;20187;-73
2022/08/30 01:51:21;;;;;;;5.70;5.15;;;;;;;14.58;91.53;102246.31;4992090;28;20043;-73
2022/08/30 01:53:48;;;;;;;5.95;5.43;;;;;;;14.58;91.65;102243.63;4993862;28;20527;-73
2022/08/30 01:56:15;;;;;;;6.43;5.80;;;;;;;14.54;92.00;102247.59;4995261;28;20047;-73
2022/08/30 01:58:42;;;;;;;7.45;5.90;;;;;;;14.51;91.96;102249.22;4995385;28;20452;-73
2022/08/30 02:01:12;;;;;;;6.07;5.57;;;;;;;14.49;91.88;102246.22;4994939;28;20475;-74
2022/08/30 02:03:41;;;;;;;7.78;5.93;;;;;;;14.46;92.20;102247.06;4995356;28;20051;-73
2022/08/30 02:06:15;;;;;;;11.30;6.20;;;;;;;14.42;92.18;102243.75;4995052;28;20047;-73
2022/08/30 02:08:42;;;;;;;6.88;6.28;;;;;;;14.39;92.21;102243.84;4995428;28;20460;-73
2022/08/30 02:11:10;;;;;;;8.13;6.03;;;;;;;14.36;92.27;102242.78;4994684;28;20102;-73
2022/08/30 02:13:38;;;;;;;10.52;6.13;;;;;;;14.33;92.50;102247.06;4995059;28;20047;-73
2022/08/30 02:16:07;;;;;;;10.30;6.55;;;;;;;14.32;92.46;102247.47;4994908;28;20492;-74
2022/08/30 02:18:35;;;;;;;6.45;5.70;;;;;;;14.29;92.32;102246.41;4994750;28;20058;-73
2022/08/30 02:21:02;;;;;;;9.77;6.28;;;;;;;14.27;92.76;102246.09;4994868;28;20110;-74
2022/08/30 02:23:28;;;;;;;7.38;6.18;;;;;;;14.26;92.73;102243.84;4993990;28;20512;-74
2022/08/30 02:25:55;;;;;;;9.75;6.15;;;;;;;14.25;92.92;102247.69;4994621;28;20448;-73
2022/08/30 02:28:21;;;;;;;10.43;6.70;;;;;;;14.21;92.72;102242.44;4994812;28;20455;-73
2022/08/30 02:30:51;;;;;;;7.35;6.20;;;;;;;14.18;93.03;102235.25;4993495;28;20047;-74
2022/08/30 02:33:17;;;;;;;7.15;6.53;;;;;;;14.18;93.04;102245.22;4995034;28;20512;-74
2022/08/30 02:35:44;;;;;;;11.25;6.38;;;;;;;14.16;92.86;102234.94;4994753;28;20102;-73
2022/08/30 02:38:10;;;;;;;7.57;6.60;;;;;;;14.15;93.21;102233.44;4994928;28;20043;-74
2022/08/30 02:40:37;;;;;;;7.72;7.03;;;;;;;14.13;93.02;102238.47;4994021;28;20125;-73
2022/08/30 02:43:04;;;;;;;7.63;6.90;;;;;;;14.11;93.42;102237.38;4994509;28;20057;-74
2022/08/30 02:45:31;;;;;;;7.43;6.72;;;;;;;14.07;93.42;102229.47;4994630;28;20412;-74
2022/08/30 02:47:58;;;;;;;8.98;6.47;;;;;;;14.02;93.75;102228.06;4994535;28;20054;-74
2022/08/30 02:50:24;;;;;;;8.00;6.60;;;;;;;14.01;93.77;102236.53;4994425;28;20046;-74
2022/08/30 02:52:51;;;;;;;8.38;7.45;;;;;;;13.97;94.33;102233.22;4994496;28;20055;-73
2022/08/30 02:55:19;;;;;;;7.97;6.32;;;;;;;13.95;94.08;102230.22;4993784;28;20054;-74
2022/08/30 02:57:46;;;;;;;8.10;7.22;;;;;;;13.92;94.31;102225.72;4995061;28;20046;-73
2022/08/30 03:00:16;;;;;;;8.27;7.38;;;;;;;13.94;94.13;102228.72;4994364;28;20043;-73
2022/08/30 03:02:42;;;;;;;7.78;7.07;;;;;;;13.92;93.96;102220.34;4994117;28;20046;-73
2022/08/30 03:05:11;;;;;;;7.90;7.20;;;;;;;13.90;94.27;102217.34;4993408;28;20098;-74
2022/08/30 03:07:39;;;;;;;8.85;7.25;;;;;;;13.89;94.49;102221.22;4994139;28;20460;-74
2022/08/30 03:10:06;;;;;;;10.05;7.15;;;;;;;13.87;94.39;102215.53;4993754;28;20584;-74
2022/08/30 03:12:33;;;;;;;7.72;7.00;;;;;;;13.87;94.16;102220.88;4994090;28;20544;-74
2022/08/30 03:15:00;;;;;;;10.80;7.22;;;;;;;13.85;94.35;102220.56;4994089;28;20053;-74
2022/08/30 03:17:26;;;;;;;9.80;7.50;;;;;;;13.83;94.47;102209.53;4994183;28;20078;-74
2022/08/30 03:19:53;;;;;;;8.27;7.63;;;;;;;13.82;94.19;102210.69;4993890;28;20107;-74
2022/08/30 03:22:19;;;;;;;8.80;7.93;;;;;;;13.78;94.58;102213.47;4993069;28;20050;-74
2022/08/30 03:24:46;;;;;;;7.88;7.18;;;;;;;13.78;94.66;102207.38;4993436;28;20051;-73
2022/08/30 03:27:12;;;;;;;8.27;7.32;;;;;;;13.77;94.86;102213.91;5002959;28;20073;-73
2022/08/30 03:29:39;;;;;;;14.15;7.60;;;;;;;13.73;94.71;102215.91;5013529;28;20057;-73
2022/08/30 03:32:06;;;;;;;8.70;7.90;;;;;;;13.70;94.39;102214.84;5013384;28;20077;-73
2022/08/30 03:34:33;;;;;;;8.93;8.07;;;;;;;13.70;94.69;102214.84;5013410;28;20133;-74
2022/08/30 03:37:00;;;;;;;10.23;7.72;;;;;;;13.68;94.69;102217.19;5013249;28;20116;-74
2022/08/30 03:39:27;;;;;;;8.55;7.75;;;;;;;13.66;94.77;102214.19;5012664;28;20538;-73
2022/08/30 03:41:53;;;;;;;8.82;7.72;;;;;;;13.63;94.96;102209.69;5013320;28;20505;-74
2022/08/30 03:44:20;;;;;;;8.85;7.68;;;;;;;13.60;94.90;102215.88;5013382;28;20508;-74
2022/08/30 03:46:47;;;;;;;8.82;7.85;;;;;;;13.59;94.71;102215.16;5013725;28;20054;-73
2022/08/30 03:49:14;;;;;;;9.27;8.35;;;;;;;13.53;95.27;102214.19;5013354;28;20047;-73
2022/08/30 03:51:40;;;;;;;8.98;8.07;;;;;;;13.51;95.34;102213.84;5013302;28;20507;-74
2022/08/30 03:54:07;;;;;;;8.73;8.02;;;;;;;13.50;95.44;102219.63;5010600;28;20046;-74
2022/08/30 03:56:33;;;;;;;8.30;7.50;;;;;;;13.47;95.34;102217.78;4993256;28;20504;-74
2022/08/30 03:59:00;;;;;;;9.60;7.82;;;;;;;13.45;95.39;102212.88;4999988;28;20046;-74
2022/08/30 04:01:26;;;;;;;9.07;7.72;;;;;;;13.43;95.24;102209.88;5012984;28;20526;-74
2022/08/30 04:03:53;;;;;;;10.20;7.15;;;;;;;13.41;95.53;102208.78;5012891;28;20046;-74
2022/08/30 04:06:20;;;;;;;8.70;7.90;;;;;;;13.39;95.40;102211.13;5028115;28;20679;-74
2022/08/30 04:08:46;;;;;;;8.82;8.07;;;;;;;13.38;95.92;102212.31;5012896;28;20101;-74
2022/08/30 04:11:16;;;;;;;8.60;7.80;;;;;;;13.35;95.68;102216.56;5013055;28;20077;-74
2022/08/30 04:13:43;;;;;;;12.00;7.93;;;;;;;13.33;95.66;102217.00;5012769;28;20105;-74
2022/08/30 04:16:09;;;;;;;8.68;7.90;;;;;;;13.33;95.75;102218.91;5012828;28;20042;-74
2022/08/30 04:18:36;;;;;;;9.35;8.43;;;;;;;13.33;95.66;102219.66;5012692;28;20042;-74
2022/08/30 04:21:03;;;;;;;8.73;7.93;;;;;;;13.33;95.56;102221.59;5012642;28;20105;-73
2022/08/30 04:23:30;;;;;;;8.57;7.90;;;;;;;13.32;95.58;102220.09;5011176;28;20050;-75
2022/08/30 04:25:56;;;;;;;9.50;8.55;;;;;;;13.30;95.63;102214.41;5012752;28;20054;-73
2022/08/30 04:28:23;;;;;;;9.60;7.70;;;;;;;13.30;95.57;102219.75;4992307;28;20043;-73
2022/08/30 04:30:50;;;;;;;9.25;8.05;;;;;;;13.29;95.45;102219.00;5011956;28;20073;-73
2022/08/30 04:33:16;;;;;;;8.52;7.80;;;;;;;13.28;95.34;102222.09;5012779;28;20038;-75
2022/08/30 04:35:46;;;;;;;10.48;8.13;;;;;;;13.27;95.68;102220.59;5011922;28;20042;-75
2022/08/30 04:38:14;;;;;;;9.05;8.15;;;;;;;13.23;96.11;102231.38;5012414;28;20042;-73
2022/08/30 04:40:42;;;;;;;9.32;8.43;;;;;;;13.22;95.80;102227.22;5027372;28;20050;-73
2022/08/30 04:43:11;;;;;;;10.40;8.65;;;;;;;13.21;95.80;102233.72;5010829;28;20050;-75
2022/08/30 04:45:39;;;;;;;9.07;8.07;;;;;;;13.22;95.69;102231.81;5011870;28;20046;-74
2022/08/30 04:48:06;;;;;;;9.60;7.97;;;;;;;13.18;95.78;102231.16;5011656;28;20399;-73
2022/08/30 04:50:33;;;;;;;8.95;8.05;;;;;;;13.16;96.04;102236.19;5011269;28;20542;-74
2022/08/30 04:53:10;;;;;;;8.95;8.13;;;;;;;13.15;96.38;102229.31;5011883;28;20038;-74
2022/08/30 04:55:39;;;;;;;9.13;7.93;;;;;;;13.15;95.78;102238.09;5012120;28;20053;-74
2022/08/30 04:58:06;;;;;;;9.00;8.10;;;;;;;13.14;96.15;102233.16;5010608;28;20054;-73
2022/08/30 05:00:32;;;;;;;9.40;8.07;;;;;;;13.13;96.04;102242.34;5012216;28;20050;-73
2022/08/30 05:02:59;;;;;;;9.38;8.48;;;;;;;13.13;96.20;102245.78;5012173;28;20042;-73
2022/08/30 05:05:38;;;;;;;9.93;8.95;;;;;;;13.13;96.20;102237.00;5010601;28;20046;-73
2022/08/30 05:08:12;;;;;;;9.05;8.25;;;;;;;13.16;96.07;102244.22;5012163;28;20053;-74
2022/08/30 05:10:45;;;;;;;11.45;8.60;;;;;;;13.16;95.93;102244.97;5011835;28;20050;-73
2022/08/30 05:13:13;;;;;;;8.82;8.05;;;;;;;13.20;96.11;102247.53;5012171;28;20046;-73
2022/08/30 05:15:40;;;;;;;15.30;8.73;;;;;;;13.20;95.80;102255.53;5011870;28;20109;-73
2022/08/30 05:18:09;;;;;;;9.15;8.35;;;;;;;13.22;96.00;102255.88;5011976;28;20101;-74
2022/08/30 05:20:39;;;;;;;8.75;7.95;;;;;;;13.25;96.01;102252.34;5011457;28;20050;-74
2022/08/30 05:23:06;;;;;;;10.75;8.25;;;;;;;13.27;95.88;102248.09;5011671;28;20054;-74
2022/08/30 05:25:37;;;;;;;8.90;8.15;;;;;;;13.28;95.95;102246.91;5011520;28;20054;-74
2022/08/30 05:28:04;;;;;;;9.20;8.30;;;;;;;13.33;96.18;102256.34;5029210;28;20468;-74
2022/08/30 05:30:33;;;;;;;9.32;8.52;;;;;;;13.36;95.64;102258.19;5018228;28;20117;-73
2022/08/30 05:33:01;;;;;;;13.48;8.20;;;;;;;13.41;95.83;102268.38;5018060;28;20050;-73
2022/08/30 05:35:28;;;;;;;14.27;8.43;;;;;;;13.47;95.32;102260.59;5017898;28;20093;-73
2022/08/30 05:37:54;;;;;;;9.48;8.57;;;;;;;13.53;95.32;102266.94;5017967;28;20046;-74
2022/08/30 05:40:21;;;;;;;9.95;8.25;;;;;;;13.58;95.27;102269.84;5018312;28;20597;-74
2022/08/30 05:42:48;;;;;;;11.25;8.35;;;;;;;13.66;94.77;102273.81;5018501;28;20537;-74
2022/08/30 05:45:15;;;;;;;9.45;8.55;;;;;;;13.97;94.85;102284.09;5018453;28;20051;-74
2022/08/30 05:47:41;;;;;;;8.75;8.05;;;;;;;15.16;90.59;102285.47;5018234;28;20101;-74
2022/08/30 05:50:08;;;;;;;9.98;7.75;;;;;;;15.16;88.14;102288.91;5017602;28;20046;-74
2022/08/30 05:52:39;;;;;;;12.07;8.10;;;;;;;16.41;85.46;102289.84;5017846;28;20050;-75
2022/08/30 05:55:06;;;;;;;9.00;8.10;;;;;;;18.07;77.36;102292.94;5018250;28;20496;-75
2022/08/30 05:57:35;;;;;;;8.95;7.63;;;;;;;19.14;72.01;102280.56;5017976;28;20655;-74
2022/08/30 06:00:05;;;;;;;7.97;7.20;;;;;;;19.81;67.98;102279.06;5017555;28;20062;-74
2022/08/30 06:02:37;;;;;;;7.95;6.38;;;;;;;20.10;65.54;102283.69;5017370;28;20046;-74
2022/08/30 06:05:04;;;;;;;7.55;6.95;;;;;;;20.36;64.88;102278.41;5017714;28;20054;-74
2022/08/30 06:07:31;;;;;;;8.52;7.20;;;;;;;20.60;63.45;102287.13;5033158;28;20126;-75
2022/08/30 06:09:57;;;;;;;7.13;6.55;;;;;;;20.66;63.05;102275.63;5018007;28;20046;-74
2022/08/30 06:12:24;;;;;;;6.72;6.03;;;;;;;21.12;61.66;102284.53;5017753;28;20104;-76
2022/08/30 06:14:50;;;;;;;10.00;6.95;;;;;;;21.12;61.24;102289.22;5017654;28;20104;-75
2022/08/30 06:17:20;;;;;;;9.48;6.25;;;;;;;20.96;61.27;102290.50;5016979;28;20509;-76
2022/08/30 06:19:46;;;;;;;6.78;6.22;;;;;;;20.84;61.80;102291.59;5018101;28;20077;-74
2022/08/30 06:22:13;;;;;;;8.65;6.57;;;;;;;20.92;62.05;102287.25;5018064;28;20486;-75
2022/08/30 06:24:40;;;;;;;6.00;5.60;;;;;;;20.85;61.31;102283.00;5017236;28;20093;-77
2022/08/30 06:27:23;;;;;;;6.35;5.82;;;;;;;20.74;62.32;102282.88;5017754;28;20046;-77
2022/08/30 06:29:51;;;;;;;6.18;5.65;;;;;;;20.40;63.05;102280.94;5017351;28;20050;-76
2022/08/30 06:32:18;;;;;;;7.25;5.93;;;;;;;20.12;64.13;102289.34;5017374;28;20113;-75
2022/08/30 06:34:44;;;;;;;8.95;5.90;;;;;;;19.83;65.81;102290.16;5017586;28;20046;-75
2022/08/30 06:37:11;;;;;;;13.70;5.72;;;;;;;19.47;66.37;102287.78;5017556;28;20050;-75
2022/08/30 06:39:56;;;;;;;6.85;5.38;;;;;;;19.26;68.36;102290.34;5014428;28;20053;-75
2022/08/30 06:42:23;;;;;;;5.78;5.28;;;;;;;19.31;69.03;102300.50;5014142;28;20093;-75
2022/08/30 06:44:50;;;;;;;8.02;5.25;;;;;;;19.24;68.37;102292.75;5013662;28;20053;-75
2022/08/30 06:47:17;;;;;;;5.15;4.78;;;;;;;19.28;67.59;102292.56;5013988;28;20125;-75
2022/08/30 06:49:43;;;;;;;7.32;5.22;;;;;;;19.20;68.17;102288.75;5014119;28;20047;-74
2022/08/30 06:52:10;;;;;;;9.27;5.03;;;;;;;19.11;68.00;102286.88;5014011;28;20049;-74
2022/08/30 06:54:37;;;;;;;4.15;3.85;;;;;;;19.04;68.33;102289.19;5014292;28;20167;-74
2022/08/30 06:57:03;;;;;;;6.10;4.07;;;;;;;18.96;68.75;102284.13;5013689;28;20089;-76
2022/08/30 06:59:31;;;;;;;4.78;4.00;;;;;;;19.01;68.50;102285.44;5013887;28;20539;-76
2022/08/30 07:01:58;;;;;;;6.68;3.78;;;;;;;18.98;67.99;102292.50;5013306;28;20109;-77
2022/08/30 07:04:25;;;;;;;4.07;3.72;;;;;;;18.95;68.35;102289.97;5013739;28;20047;-75
2022/08/30 07:06:52;;;;;;;4.18;3.70;;;;;;;19.02;68.62;102284.25;5014059;28;20046;-75
2022/08/30 07:09:19;;;;;;;4.32;3.88;;;;;;;19.10;67.31;102287.34;5014148;28;20066;-75
2022/08/30 07:11:49;;;;;;;4.03;3.60;;;;;;;19.17;67.20;102290.44;5012642;28;20050;-75
2022/08/30 07:14:15;;;;;;;5.38;2.80;;;;;;;19.20;66.45;102294.13;5013978;28;20081;-75
2022/08/30 07:16:43;;;;;;;6.20;2.80;;;;;;;19.21;66.41;102290.22;5013361;28;20120;-74
2022/08/30 07:19:09;;;;;;;4.13;2.88;;;;;;;19.20;66.21;102286.03;5013566;28;20130;-75
2022/08/30 07:21:47;;;;;;;4.40;2.70;;;;;;;19.25;65.69;102285.41;5014039;28;20456;-77
2022/08/30 07:24:15;;;;;;;4.32;2.30;;;;;;;19.37;65.81;102280.97;5012948;28;20051;-75
2022/08/30 07:26:47;;;;;;;5.25;2.50;;;;;;;19.48;64.18;102287.31;5013531;28;20054;-77
2022/08/30 07:29:15;;;;;;;2.83;2.63;;;;;;;19.45;63.85;102282.09;5013903;28;20512;-76
2022/08/30 07:31:42;;;;;;;2.40;2.20;;;;;;;19.51;63.40;102291.81;5013066;28;20507;-76
2022/08/30 07:34:09;;;;;;;3.17;1.90;;;;;;;19.53;62.64;102286.69;5013496;28;20046;-75
2022/08/30 07:36:37;;;;;;;2.50;1.90;;;;;;;19.68;63.30;102284.00;5011810;28;20107;-77
2022/08/30 07:39:05;;;;;;;4.47;2.00;;;;;;;19.70;62.04;102286.22;5013402;28;20046;-77
2022/08/30 07:41:37;;;;;;;1.83;1.73;;;;;;;19.78;61.33;102284.66;5003361;28;20613;-77
2022/08/30 07:44:05;;;;;;;5.30;1.50;;;;;;;19.91;61.03;102291.25;4993512;28;20038;-76
2022/08/30 07:46:31;;;;;;;1.95;1.58;;;;;;;20.11;60.38;102284.41;5008613;28;20081;-77
2022/08/30 07:48:59;;;;;;;3.58;1.40;;;;;;;20.19;59.50;102283.56;5013181;28;20126;-76
2022/08/30 07:51:30;;;;;;;3.53;1.40;;;;;;;20.39;60.06;102284.88;5012911;28;20078;-76
2022/08/30 07:53:56;;;;;;;1.30;1.20;;;;;;;20.50;57.89;102291.16;5013350;28;20046;-77
2022/08/30 07:56:23;;;;;;;12.18;1.60;;;;;;;20.58;56.88;102286.84;5013092;28;20046;-77
2022/08/30 07:58:50;;;;;;;1.55;1.42;;;;;;;20.63;54.76;102291.59;4994863;28;20047;-76
2022/08/30 08:01:17;;;;;;;4.00;1.30;;;;;;;20.63;54.95;102296.25;5013363;28;20042;-78
2022/08/30 08:03:45;;;;;;;2.15;1.50;;;;;;;20.64;53.86;102293.06;5011456;28;20042;-85
2022/08/30 08:06:13;;;;;;;2.10;1.90;;;;;;;20.59;53.70;102295.72;5006852;28;20093;-79
2022/08/30 08:08:41;;;;;;;3.28;1.30;;;;;;;20.72;53.63;102306.97;4993091;28;20050;-78
2022/08/30 08:11:13;;;;;;;2.40;1.40;;;;;;;20.75;52.39;102305.28;4993200;28;20483;-76
2022/08/30 08:13:44;;;;;;;4.55;1.45;;;;;;;20.74;51.78;102301.81;4991572;28;20059;-75
2022/08/30 08:16:28;;;;;;;2.00;1.30;;;;;;;20.77;52.59;102313.66;4993062;28;20052;-76
2022/08/30 08:18:55;;;;;;;5.35;1.30;;;;;;;20.90;51.45;102306.69;4992950;28;20105;-75
2022/08/30 08:21:23;;;;;;;1.15;1.15;;;;;;;21.00;51.46;102311.97;4992745;28;20042;-76
2022/08/30 08:23:50;;;;;;;1.92;1.23;;;;;;;21.05;51.84;102314.00;4992297;28;20062;-76
2022/08/30 08:26:18;;;;;;;1.50;1.40;;;;;;;21.10;51.81;102305.94;4993090;28;20047;-75
2022/08/30 08:28:45;;;;;;;3.13;1.40;;;;;;;21.18;50.61;102308.97;4990553;28;20062;-75
2022/08/30 08:31:23;;;;;;;4.90;1.30;;;;;;;21.26;50.60;102305.38;4992848;28;20057;-75
2022/08/30 08:34:01;;;;;;;2.58;1.60;;;;;;;21.39;50.50;102307.75;4992801;28;20488;-76
2022/08/30 08:36:30;;;;;;;6.43;1.50;;;;;;;21.39;49.44;102307.75;5007748;28;20440;-82
2022/08/30 08:38:57;;;;;;;2.38;1.20;;;;;;;21.36;49.91;102303.28;4992777;28;20057;-74
2022/08/30 08:41:40;;;;;;;2.30;1.20;;;;;;;21.44;49.64;102298.19;4992595;28;20484;-73
2022/08/30 08:44:39;;;;;;;2.30;1.40;;;;;;;21.42;50.32;102304.06;4991038;28;20051;-73
2022/08/30 08:47:14;;;;;;;1.88;1.63;;;;;;;21.46;48.81;102303.88;5007807;28;20039;-74
2022/08/30 08:49:44;;;;;;;2.47;1.30;;;;;;;21.44;47.78;102295.47;5007431;28;21061;-74
2022/08/30 08:55:12;;;;;;;1.83;1.50;;;;;;;21.71;48.75;102296.94;4992596;28;20113;-74
2022/08/30 08:57:40;;;;;;;1.38;1.27;;;;;;;21.75;46.76;102303.63;4974324;28;20043;-74
2022/08/30 09:00:10;;;;;;;4.57;1.23;;;;;;;21.76;47.60;102301.66;4992275;28;20523;-74
2022/08/30 09:03:09;;;;;;;2.22;1.42;;;;;;;21.88;48.16;102320.25;4991588;28;20043;-73
2022/08/30 09:05:39;;;;;;;1.45;1.30;;;;;;;21.86;46.05;102303.75;4995401;28;20070;-74
2022/08/30 09:08:10;;;;;;;1.65;1.50;;;;;;;21.86;46.09;102309.16;4991851;28;20464;-75
2022/08/30 09:10:37;;;;;;;2.42;1.48;;;;;;;21.95;46.07;102298.16;4992611;28;20047;-74
2022/08/30 09:13:16;;;;;;;3.58;1.50;;;;;;;21.96;46.01;102296.19;4992532;28;20050;-75
2022/08/30 09:15:44;;;;;;;3.90;1.30;;;;;;;22.02;46.24;102301.66;4992219;28;20054;-75
2022/08/30 09:18:11;;;;;;;1.45;1.35;;;;;;;22.16;46.96;102298.78;4992006;28;20055;-75
2022/08/30 09:20:49;;;;;;;2.28;1.40;;;;;;;22.28;45.74;102299.63;4991782;28;20076;-75
2022/08/30 09:23:15;;;;;;;2.15;1.50;;;;;;;22.36;45.61;102297.22;4991091;28;20051;-76
2022/08/30 09:25:52;;;;;;;1.50;1.40;;;;;;;22.46;45.48;102296.50;4991669;28;20079;-76
2022/08/30 09:28:30;;;;;;;1.50;1.35;;;;;;;22.57;46.00;102302.00;4990882;28;20050;-76
2022/08/30 09:31:05;;;;;;;2.47;1.30;;;;;;;22.66;44.85;102294.88;4991004;28;20047;-76
2022/08/30 09:33:37;;;;;;;14.45;1.40;;;;;;;22.67;45.01;102301.78;4992264;28;20058;-76
2022/08/30 09:36:21;;;;;;;1.63;1.50;;;;;;;22.74;45.68;102298.63;4992000;28;20116;-76
2022/08/30 09:38:57;;;;;;;1.98;1.50;;;;;;;22.90;44.47;102293.28;4992420;28;20051;-76
2022/08/30 09:41:36;;;;;;;3.58;1.40;;;;;;;23.00;42.89;102296.53;4991596;28;20100;-76
2022/08/30 09:44:26;;;;;;;4.45;2.00;;;;;;;23.06;43.45;102301.97;4991948;28;20066;-75
2022/08/30 09:46:56;;;;;;;1.50;1.33;;;;;;;22.91;42.17;102304.88;4991694;28;20129;-76
2022/08/30 09:49:38;;;;;;;3.30;1.30;;;;;;;22.88;43.15;102298.44;5006752;28;20047;-76
2022/08/30 09:52:38;;;;;;;4.22;1.23;;;;;;;22.89;43.65;102299.94;4991640;28;20051;-74
2022/08/30 09:55:25;;;;;;;1.40;1.30;;;;;;;22.98;43.23;102298.97;4991562;28;20160;-76
2022/08/30 09:58:08;;;;;;;3.15;1.40;;;;;;;23.14;42.55;102303.00;4991819;28;20047;-76
2022/08/30 10:00:52;;;;;;;2.20;1.30;;;;;;;23.11;43.50;102299.28;4991848;28;20484;-76
2022/08/30 10:03:30;;;;;;;2.60;1.40;;;;;;;23.07;43.39;102298.78;4992167;28;20078;-76
2022/08/30 10:06:20;;;;;;;1.55;1.30;;;;;;;23.17;42.60;102299.28;4991594;28;20504;-76
2022/08/30 10:09:07;;;;;;;;;;;;;;;23.25;45.38;102297.56;4992413;28;20519;-75
2022/08/30 10:11:53;;;;;;;6.53;1.60;;;;;;;23.27;41.85;102295.84;4991422;28;19926;-75
2022/08/30 10:14:32;;;;;;;2.30;1.30;;;;;;;23.28;41.15;102296.59;4993135;28;20051;-75
2022/08/30 10:17:14;;;;;;;1.40;1.30;;;;;;;23.36;41.96;102303.03;4994726;28;20504;-75
2022/08/30 10:20:17;;;;;;;2.42;1.30;;;;;;;23.51;42.75;102297.38;5010472;28;20420;-74
2022/08/30 10:22:53;;;;;;;3.92;1.60;;;;;;;23.53;42.18;102303.81;4994970;28;20106;-73
2022/08/30 10:25:36;;;;;;;1.58;1.48;;;;;;;23.44;43.06;102295.88;4993622;28;20157;-75
2022/08/30 10:28:14;;;;;;;1.60;1.50;;;;;;;23.65;42.69;102290.97;5009699;28;20109;-75
2022/08/30 10:30:47;;;;;;;1.27;1.27;;;;;;;23.61;42.59;102301.34;4994875;28;20098;-79
2022/08/30 10:33:19;;;;;;;6.90;1.33;;;;;;;23.70;42.25;102303.06;4993272;28;20535;-76
2022/08/30 10:35:59;;;;;;;2.55;1.50;;;;;;;23.64;42.16;102291.47;4995063;28;20046;-74
2022/08/30 10:38:30;;;;;;;1.70;1.58;;;;;;;23.67;41.98;102298.63;4994072;28;20563;-73
2022/08/30 10:41:24;;;;;;;7.13;1.60;;;;;;;23.69;42.75;102291.47;4993885;28;20066;-75
2022/08/30 10:44:01;;;;;;;1.52;1.42;;;;;;;23.77;41.25;102292.44;4997090;28;20055;-74
2022/08/30 10:46:36;;;;;;;9.30;1.90;;;;;;;23.74;40.95;102288.00;4994737;28;20051;-73
2022/08/30 10:49:10;;;;;;;1.80;1.27;;;;;;;23.74;40.51;102293.44;4993455;28;20051;-74
2022/08/30 10:52:31;;;;;;;3.15;1.33;;;;;;;23.63;41.59;102287.25;4994471;28;20452;-74
2022/08/30 10:55:27;;;;;;;1.63;1.30;;;;;;;23.59;41.51;102290.25;4995291;28;20054;-74
2022/08/30 10:58:05;;;;;;;1.48;1.33;;;;;;;23.53;40.62;102298.38;5009065;28;20058;-74
2022/08/30 11:00:44;;;;;;;1.83;1.50;;;;;;;23.45;41.59;102291.19;5011647;28;20054;-74
2022/08/30 11:03:29;;;;;;;2.28;1.75;;;;;;;23.64;41.38;102283.31;5010852;28;20065;-74
2022/08/30 11:06:04;;;;;;;98.93;72.18;;;;;;;23.69;40.27;102286.03;5011344;28;20098;-73
2022/08/30 11:09:07;;;;;;;2.40;2.20;;;;;;;23.62;42.06;102300.09;5010603;28;20055;-75
2022/08/30 11:11:49;;;;;;;3.00;2.08;;;;;;;23.53;39.93;102290.22;5011638;28;20459;-74
2022/08/30 11:14:18;;;;;;;1.80;1.55;;;;;;;23.50;40.26;102280.31;5011749;28;20459;-74
2022/08/30 11:16:53;;;;;;;2.25;1.60;;;;;;;23.57;41.02;102273.69;5010426;28;20058;-74
2022/08/30 11:19:25;;;;;;;1.98;1.40;;;;;;;23.66;40.67;102270.69;5011448;28;20479;-74
2022/08/30 11:22:12;;;;;;;4.78;1.33;;;;;;;23.72;40.46;102273.41;5010592;28;20129;-74
2022/08/30 11:24:57;;;;;;;7.35;1.50;;;;;;;23.81;40.57;102278.63;5009406;28;20601;-74
2022/08/30 11:27:44;;;;;;;1.63;1.45;;;;;;;23.74;40.59;102279.09;5010397;28;20160;-74
2022/08/30 11:30:22;;;;;;;1.60;1.50;;;;;;;23.72;39.99;102273.41;4993815;28;20059;-76
2022/08/30 11:33:05;;;;;;;5.50;1.80;;;;;;;23.67;40.61;102282.31;5008787;28;20467;-74
2022/08/30 11:35:42;;;;;;;3.40;1.48;;;;;;;23.65;39.61;102282.81;4993829;28;20460;-74
2022/08/30 11:38:26;;;;;;;7.07;1.35;;;;;;;23.56;39.88;102270.22;5008423;28;20131;-74
2022/08/30 11:40:56;;;;;;;4.85;1.70;;;;;;;23.63;38.86;102270.94;4993487;28;20094;-74
2022/08/30 11:43:38;;;;;;;6.35;1.60;;;;;;;23.65;39.96;102263.03;4993418;28;20050;-74